Flight Track Log - Related Links

Times and Time Zones

All times are in EDT time to prevent confusion due to time zone crossing. See the KAP528 flight status page for this flight to view local times or setup timezone preferences in your user account.


Time Position Orientation Groundspeed Altitude Reporting Facility
EDT Latitude Longitude Course Direction KTS MPH feet Rate Location/Type
Fri 05:39:16 PM 42.3833 -71.0000 340° North 107 123 500  Level KA90
Fri 05:40:04 PM 42.4167 -71.0167 340° North 131 151 1,100 889 Climbing KA90
Fri 05:41:04 PM 42.4333 -71.0333 324° Northwest 135 155 2,100 950 Climbing KA90
Fri 05:42:04 PM 42.4833 -71.0667 334° Northwest 137 158 3,000 850 Climbing KA90
Fri 05:43:04 PM 42.5000 -71.1000 304° West 143 165 3,800 905 Climbing KA90
Fri 05:44:10 PM 42.5167 -71.1500 294° West 138 159 4,900 850 Climbing KA90
Fri 05:45:04 PM 42.5500 -71.1833 324° Northwest 138 159 5,500 526 Climbing KA90
Fri 05:46:04 PM 42.5833 -71.2000 340° North 145 167 5,900 200 Climbing KA90
Fri 05:47:04 PM 42.6167 -71.2333 324° Northwest 155 178 5,900  Level KA90
Fri 05:48:04 PM 42.6667 -71.2500 346° North 170 196 5,900  Level KA90
Fri 05:49:04 PM 42.7000 -71.3000 312° West 169 194 5,900  Level KA90
Fri 05:50:04 PM 42.7167 -71.3500 294° West 167 192 5,900  Level KA90
Fri 05:50:58 PM 42.7500 -71.4000 312° West 168 193 5,900  Level KA90
Fri 05:52:04 PM 42.7667 -71.4500 294° West 167 192 5,900  Level KA90
Fri 05:53:04 PM 42.8000 -71.5000 312° West 168 193 5,900  Level KA90
Fri 05:54:04 PM 42.8333 -71.5667 304° West 170 196 5,900  Level KA90
Fri 05:55:04 PM 42.8500 -71.6167 294° West 169 194 5,900  Level KA90
Fri 05:56:16 PM 42.8856 -71.6778 308° West 181 208 5,900  Level Boston Center
Fri 05:57:16 PM 42.9108 -71.7228 307° West 173 199 5,900  Level Boston Center
Fri 05:58:16 PM 42.9425 -71.7819 306° West 173 199 5,900  Level Boston Center
Fri 05:59:16 PM 42.9656 -71.8272 305° West 173 199 5,900  Level Boston Center
Fri 06:00:16 PM 42.9950 -71.8867 304° West 173 199 5,900  Level Boston Center
Fri 06:01:16 PM 43.0161 -71.9347 301° West 173 199 5,900  Level Boston Center
Fri 06:02:16 PM 43.0478 -71.9997 304° West 173 199 5,900  Level Boston Center
Fri 06:03:16 PM 43.0708 -72.0450 305° West 173 199 5,900  Level Boston Center
Fri 06:04:16 PM 43.1044 -72.1075 306° West 173 199 5,900 150 Level Boston Center
Fri 06:05:16 PM 43.1275 -72.1528 305° West 173 199 6,200 300 Climbing Boston Center
Fri 06:06:16 PM 43.1547 -72.2067 305° West 167 192 6,500 300 Climbing Boston Center
Fri 06:07:16 PM 43.1733 -72.2464 303° West 162 186 6,800 250 Climbing Boston Center
Fri 06:08:16 PM 43.2047 -72.2978 310° West 157 181 7,000 50 Climbing Boston Center
Fri 06:09:16 PM 43.2278 -72.3461 303° West 157 181 6,900  Descending Boston Center
Fri 06:10:16 PM 43.2550 -72.4003 305° West 157 181 7,000 -50 Climbing Boston Center
Fri 06:11:16 PM 43.2819 -72.4486 307° West 162 186 6,800 -250 Descending Boston Center
Fri 06:12:16 PM 43.3092 -72.5056 303° West 168 193 6,500 -300 Descending Boston Center
Fri 06:13:16 PM 43.3381 -72.5600 306° West 173 199 6,200 -350 Descending Boston Center
Fri 06:14:16 PM 43.3589 -72.6028 304° West 173 199 5,800 -400 Descending Boston Center

Login

Don't have an account? Register now (free) for customized features, flight alerts, and more!